PWSweather.com
Personal Weather Stations
Station Observations
RIORANCHO
Corrales Heights, Rio Rancho, NM 87124

Corrales HeightsRio Rancho, NM 87124

Lat: 35.241928, Lon: -106.647095

Elevation: 5297

Station Type: Davis Vantage Pro 2 Plus

http://www.weatherriorancho.com

High Low Average
Temperature 63.1°F17.3°C 32.2°F0.1°C 46.6°F8.1°C
Dew Point 37.6°F3.1°C 16.0°F-8.9°C 28.0°F-2.2°C
Winds 6.9 mph 11.1 kmh Calm Calm 1.0 mph SW1.6 kmh SW
Wind Gusts 11.5 mph18.5 kmh -- 2.0 mph3.2 kmh
Humidity 90% 16% 55%
Pressure 30.20 in1022.7 mb 30.08 in1018.6 mb -
Precipitation 0.00 in0.0 mm - -
Hour Temp Dew Point Humidity Winds Wind Gusts Pressure Precip Precip Rate Daily Precip Total
12:00 AM 41.8°F5.4°C 37.6°F3.1°C 85% 2.3 mph SSE3.7 kmh SSE 3.5 mph5.6 kmh 30.11 in1019.6 mb - 0.00 in0.0 mm 0.00 in0.0 mm
12:10 AM 41.8°F5.4°C 37.6°F3.1°C 85% 1.2 mph SSE1.9 kmh SSE 2.3 mph3.7 kmh 30.11 in1019.6 mb - 0.00 in0.0 mm 0.00 in0.0 mm
12:20 AM 41.5°F5.3°C 37.3°F2.9°C 85% Calm Calm 3.5 mph5.6 kmh 30.11 in1019.6 mb - 0.00 in0.0 mm 0.00 in0.0 mm
12:30 AM 41.2°F5.1°C 37.0°F2.8°C 85% Calm Calm -- 30.12 in1020.0 mb - 0.00 in0.0 mm 0.00 in0.0 mm
12:40 AM 40.9°F4.9°C 37.0°F2.8°C 86% Calm Calm -- 30.12 in1020.0 mb - 0.00 in0.0 mm 0.00 in0.0 mm
12:50 AM 40.4°F4.7°C 36.5°F2.5°C 86% Calm Calm -- 30.12 in1020.0 mb - 0.00 in0.0 mm 0.00 in0.0 mm
01:00 AM 40.4°F4.7°C 36.8°F2.7°C 87% Calm Calm -- 30.12 in1020.0 mb - 0.00 in0.0 mm 0.00 in0.0 mm
01:10 AM 40.3°F4.6°C 36.7°F2.6°C 87% Calm Calm 1.2 mph1.9 kmh 30.12 in1020.0 mb - 0.00 in0.0 mm 0.00 in0.0 mm
01:20 AM 40.3°F4.6°C 37.0°F2.8°C 88% Calm Calm 1.2 mph1.9 kmh 30.12 in1020.0 mb - 0.00 in0.0 mm 0.00 in0.0 mm
01:30 AM 40.4°F4.7°C 37.1°F2.8°C 88% Calm Calm 1.2 mph1.9 kmh 30.13 in1020.3 mb - 0.00 in0.0 mm 0.00 in0.0 mm
01:40 AM 40.3°F4.6°C 37.0°F2.8°C 88% Calm Calm -- 30.13 in1020.3 mb - 0.00 in0.0 mm 0.00 in0.0 mm
01:50 AM 39.9°F4.4°C 36.4°F2.4°C 87% Calm Calm -- 30.13 in1020.3 mb - 0.00 in0.0 mm 0.00 in0.0 mm
02:00 AM 39.3°F4.1°C 35.8°F2.1°C 87% Calm Calm -- 30.13 in1020.3 mb - 0.00 in0.0 mm 0.00 in0.0 mm
02:10 AM 38.8°F3.8°C 35.0°F1.7°C 86% Calm Calm -- 30.13 in1020.3 mb - 0.00 in0.0 mm 0.00 in0.0 mm
02:20 AM 38.0°F3.3°C 34.5°F1.4°C 87% Calm Calm -- 30.12 in1020.0 mb - 0.00 in0.0 mm 0.00 in0.0 mm
02:30 AM 37.7°F3.2°C 34.2°F1.2°C 87% Calm Calm -- 30.13 in1020.3 mb - 0.00 in0.0 mm 0.00 in0.0 mm
02:40 AM 37.1°F2.8°C 33.6°F0.9°C 87% Calm Calm -- 30.12 in1020.0 mb - 0.00 in0.0 mm 0.00 in0.0 mm
02:50 AM 36.6°F2.6°C 33.1°F0.6°C 87% Calm Calm -- 30.12 in1020.0 mb - 0.00 in0.0 mm 0.00 in0.0 mm
03:00 AM 36.2°F2.3°C 32.7°F0.4°C 87% Calm Calm -- 30.12 in1020.0 mb - 0.00 in0.0 mm 0.00 in0.0 mm
03:10 AM 35.7°F2.1°C 32.5°F0.3°C 88% Calm Calm 1.2 mph1.9 kmh 30.12 in1020.0 mb - 0.00 in0.0 mm 0.00 in0.0 mm
03:20 AM 35.5°F1.9°C 32.3°F0.2°C 88% Calm Calm -- 30.13 in1020.3 mb - 0.00 in0.0 mm 0.00 in0.0 mm
03:30 AM 35.3°F1.8°C 32.4°F0.2°C 89% Calm Calm 1.2 mph1.9 kmh 30.13 in1020.3 mb - 0.00 in0.0 mm 0.00 in0.0 mm
03:40 AM 35.2°F1.8°C 32.3°F0.2°C 89% Calm Calm 1.2 mph1.9 kmh 30.13 in1020.3 mb - 0.00 in0.0 mm 0.00 in0.0 mm
03:50 AM 34.9°F1.6°C 32.0°F0.0°C 89% Calm Calm 1.2 mph1.9 kmh 30.13 in1020.3 mb - 0.00 in0.0 mm 0.00 in0.0 mm
04:00 AM 34.8°F1.6°C 32.2°F0.1°C 90% Calm Calm 1.2 mph1.9 kmh 30.14 in1020.7 mb - 0.00 in0.0 mm 0.00 in0.0 mm
04:10 AM 34.6°F1.4°C 32.0°F0.0°C 90% Calm Calm 1.2 mph1.9 kmh 30.13 in1020.3 mb - 0.00 in0.0 mm 0.00 in0.0 mm
04:20 AM 34.4°F1.3°C 31.8°F-0.1°C 90% Calm Calm -- 30.14 in1020.7 mb - 0.00 in0.0 mm 0.00 in0.0 mm
04:30 AM 34.3°F1.3°C 31.4°F-0.3°C 89% Calm Calm -- 30.14 in1020.7 mb - 0.00 in0.0 mm 0.00 in0.0 mm
04:40 AM 34.0°F1.1°C 31.4°F-0.3°C 90% Calm Calm -- 30.15 in1021.0 mb - 0.00 in0.0 mm 0.00 in0.0 mm
04:50 AM 33.8°F1.0°C 31.2°F-0.4°C 90% Calm Calm -- 30.16 in1021.3 mb - 0.00 in0.0 mm 0.00 in0.0 mm
05:00 AM 33.3°F0.7°C 30.4°F-0.9°C 89% Calm Calm -- 30.16 in1021.3 mb - 0.00 in0.0 mm 0.00 in0.0 mm
05:10 AM 33.2°F0.7°C 30.3°F-0.9°C 89% Calm Calm -- 30.16 in1021.3 mb - 0.00 in0.0 mm 0.00 in0.0 mm
05:20 AM 32.9°F0.5°C 29.7°F-1.3°C 88% Calm Calm -- 30.16 in1021.3 mb - 0.00 in0.0 mm 0.00 in0.0 mm
05:30 AM 32.6°F0.3°C 29.4°F-1.4°C 88% Calm Calm -- 30.16 in1021.3 mb - 0.00 in0.0 mm 0.00 in0.0 mm
05:40 AM 32.2°F0.1°C 29.0°F-1.7°C 88% Calm Calm 1.2 mph1.9 kmh 30.16 in1021.3 mb - 0.00 in0.0 mm 0.00 in0.0 mm
05:50 AM 32.2°F0.1°C 29.0°F-1.7°C 88% 1.2 mph S1.9 kmh S 5.8 mph9.3 kmh 30.16 in1021.3 mb - 0.00 in0.0 mm 0.00 in0.0 mm
06:00 AM 32.7°F0.4°C 29.0°F-1.7°C 86% 1.2 mph S1.9 kmh S 4.6 mph7.4 kmh 30.16 in1021.3 mb - 0.00 in0.0 mm 0.00 in0.0 mm
06:10 AM 33.0°F0.6°C 29.0°F-1.7°C 85% 1.2 mph SSW1.9 kmh SSW 4.6 mph7.4 kmh 30.16 in1021.3 mb - 0.00 in0.0 mm 0.00 in0.0 mm
06:20 AM 33.8°F1.0°C 29.1°F-1.6°C 83% 1.2 mph SW1.9 kmh SW 3.5 mph5.6 kmh 30.16 in1021.3 mb - 0.00 in0.0 mm 0.00 in0.0 mm
06:30 AM 34.0°F1.1°C 28.8°F-1.8°C 81% Calm Calm -- 30.17 in1021.7 mb - 0.00 in0.0 mm 0.00 in0.0 mm
06:40 AM 33.4°F0.8°C 27.9°F-2.3°C 80% 1.2 mph SW1.9 kmh SW 3.5 mph5.6 kmh 30.17 in1021.7 mb - 0.00 in0.0 mm 0.00 in0.0 mm
06:50 AM 33.1°F0.6°C 27.9°F-2.3°C 81% Calm Calm -- 30.17 in1021.7 mb - 0.00 in0.0 mm 0.00 in0.0 mm
07:00 AM 33.5°F0.8°C 28.3°F-2.1°C 81% 1.2 mph SW1.9 kmh SW 3.5 mph5.6 kmh 30.17 in1021.7 mb - 0.00 in0.0 mm 0.00 in0.0 mm
07:10 AM 34.5°F1.4°C 29.3°F-1.5°C 81% 3.5 mph NNW5.6 kmh NNW 4.6 mph7.4 kmh 30.17 in1021.7 mb - 0.00 in0.0 mm 0.00 in0.0 mm
07:20 AM 35.0°F1.7°C 29.5°F-1.4°C 80% Calm Calm 3.5 mph5.6 kmh 30.17 in1021.7 mb - 0.00 in0.0 mm 0.00 in0.0 mm
07:30 AM 35.5°F1.9°C 29.6°F-1.3°C 79% Calm Calm 2.3 mph3.7 kmh 30.17 in1021.7 mb - 0.00 in0.0 mm 0.00 in0.0 mm
07:40 AM 36.0°F2.2°C 30.1°F-1.1°C 79% Calm Calm 3.5 mph5.6 kmh 30.18 in1022.0 mb - 0.00 in0.0 mm 0.00 in0.0 mm
07:50 AM 37.0°F2.8°C 30.5°F-0.8°C 77% 3.5 mph N5.6 kmh N 3.5 mph5.6 kmh 30.18 in1022.0 mb - 0.00 in0.0 mm 0.00 in0.0 mm
08:00 AM 37.9°F3.3°C 31.3°F-0.4°C 77% 3.5 mph NW5.6 kmh NW 5.8 mph9.3 kmh 30.18 in1022.0 mb - 0.00 in0.0 mm 0.00 in0.0 mm
08:10 AM 38.9°F3.8°C 31.6°F-0.2°C 75% Calm Calm -- 30.18 in1022.0 mb - 0.00 in0.0 mm 0.00 in0.0 mm
08:20 AM 39.2°F4.0°C 30.9°F-0.6°C 72% Calm Calm -- 30.19 in1022.4 mb - 0.00 in0.0 mm 0.00 in0.0 mm
08:30 AM 39.2°F4.0°C 30.9°F-0.6°C 72% Calm Calm -- 30.19 in1022.4 mb - 0.00 in0.0 mm 0.00 in0.0 mm
08:40 AM 39.8°F4.3°C 31.5°F-0.3°C 72% Calm Calm -- 30.20 in1022.7 mb - 0.00 in0.0 mm 0.00 in0.0 mm
08:50 AM 40.7°F4.8°C 31.7°F-0.2°C 70% Calm Calm -- 30.20 in1022.7 mb - 0.00 in0.0 mm 0.00 in0.0 mm
09:00 AM 41.5°F5.3°C 32.1°F0.1°C 69% Calm Calm -- 30.20 in1022.7 mb - 0.00 in0.0 mm 0.00 in0.0 mm
09:10 AM 42.5°F5.8°C 32.7°F0.4°C 68% Calm Calm -- 30.20 in1022.7 mb - 0.00 in0.0 mm 0.00 in0.0 mm
09:20 AM 44.0°F6.7°C 33.4°F0.8°C 66% Calm Calm -- 30.20 in1022.7 mb - 0.00 in0.0 mm 0.00 in0.0 mm
09:30 AM 44.8°F7.1°C 32.6°F0.3°C 62% Calm Calm -- 30.19 in1022.4 mb - 0.00 in0.0 mm 0.00 in0.0 mm
09:40 AM 45.8°F7.7°C 31.4°F-0.3°C 57% 1.2 mph NW1.9 kmh NW 5.8 mph9.3 kmh 30.19 in1022.4 mb - 0.00 in0.0 mm 0.00 in0.0 mm
09:50 AM 46.9°F8.3°C 31.6°F-0.2°C 55% Calm Calm 3.5 mph5.6 kmh 30.19 in1022.4 mb - 0.00 in0.0 mm 0.00 in0.0 mm
10:00 AM 48.2°F9.0°C 30.4°F-0.9°C 50% 2.3 mph NW3.7 kmh NW 10.4 mph16.7 kmh 30.19 in1022.4 mb - 0.00 in0.0 mm 0.00 in0.0 mm
10:10 AM 49.3°F9.6°C 30.4°F-0.9°C 48% 1.2 mph NW1.9 kmh NW 4.6 mph7.4 kmh 30.19 in1022.4 mb - 0.00 in0.0 mm 0.00 in0.0 mm
10:20 AM 50.4°F10.2°C 29.3°F-1.5°C 44% Calm Calm 1.2 mph1.9 kmh 30.19 in1022.4 mb - 0.00 in0.0 mm 0.00 in0.0 mm
10:30 AM 51.2°F10.7°C 28.3°F-2.1°C 41% 3.5 mph NW5.6 kmh NW 8.1 mph13.0 kmh 30.19 in1022.4 mb - 0.00 in0.0 mm 0.00 in0.0 mm
10:40 AM 51.9°F11.1°C 27.7°F-2.4°C 39% 1.2 mph NW1.9 kmh NW 4.6 mph7.4 kmh 30.19 in1022.4 mb - 0.00 in0.0 mm 0.00 in0.0 mm
10:50 AM 52.6°F11.4°C 28.3°F-2.1°C 39% 2.3 mph WNW3.7 kmh WNW 8.1 mph13.0 kmh 30.19 in1022.4 mb - 0.00 in0.0 mm 0.00 in0.0 mm
11:00 AM 52.8°F11.6°C 27.9°F-2.3°C 38% 2.3 mph WNW3.7 kmh WNW 11.5 mph18.5 kmh 30.19 in1022.4 mb - 0.00 in0.0 mm 0.00 in0.0 mm
11:10 AM 53.9°F12.2°C 28.2°F-2.1°C 37% 2.3 mph W3.7 kmh W 8.1 mph13.0 kmh 30.19 in1022.4 mb - 0.00 in0.0 mm 0.00 in0.0 mm
11:20 AM 53.7°F12.1°C 25.3°F-3.7°C 33% 3.5 mph NW5.6 kmh NW 1.2 mph1.9 kmh 30.19 in1022.4 mb - 0.00 in0.0 mm 0.00 in0.0 mm
11:30 AM 54.2°F12.3°C 25.7°F-3.5°C 33% 2.3 mph N3.7 kmh N 10.4 mph16.7 kmh 30.18 in1022.0 mb - 0.00 in0.0 mm 0.00 in0.0 mm
11:40 AM 54.6°F12.6°C 25.3°F-3.7°C 32% 1.2 mph WNW1.9 kmh WNW 3.5 mph5.6 kmh 30.18 in1022.0 mb - 0.00 in0.0 mm 0.00 in0.0 mm
11:50 AM 55.7°F13.2°C 25.5°F-3.6°C 31% 5.8 mph NNW9.3 kmh NNW 10.4 mph16.7 kmh 30.18 in1022.0 mb - 0.00 in0.0 mm 0.00 in0.0 mm
12:00 PM 55.9°F13.3°C 25.7°F-3.5°C 31% 1.2 mph W1.9 kmh W 6.9 mph11.1 kmh 30.17 in1021.7 mb - 0.00 in0.0 mm 0.00 in0.0 mm
12:10 PM 56.2°F13.4°C 25.9°F-3.4°C 31% Calm Calm 1.2 mph1.9 kmh 30.17 in1021.7 mb - 0.00 in0.0 mm 0.00 in0.0 mm
12:20 PM 55.4°F13.0°C 26.0°F-3.3°C 32% 4.6 mph NW7.4 kmh NW 11.5 mph18.5 kmh 30.17 in1021.7 mb - 0.00 in0.0 mm 0.00 in0.0 mm
12:30 PM 56.9°F13.8°C 24.9°F-3.9°C 29% 6.9 mph NW11.1 kmh NW 9.2 mph14.8 kmh 30.17 in1021.7 mb - 0.00 in0.0 mm 0.00 in0.0 mm
12:40 PM 56.8°F13.8°C 24.8°F-4.0°C 29% 5.8 mph NW9.3 kmh NW 8.1 mph13.0 kmh 30.16 in1021.3 mb - 0.00 in0.0 mm 0.00 in0.0 mm
12:50 PM 57.6°F14.2°C 25.5°F-3.6°C 29% 3.5 mph W5.6 kmh W 6.9 mph11.1 kmh 30.16 in1021.3 mb - 0.00 in0.0 mm 0.00 in0.0 mm
01:00 PM 58.3°F14.6°C 25.3°F-3.7°C 28% 3.5 mph W5.6 kmh W 4.6 mph7.4 kmh 30.15 in1021.0 mb - 0.00 in0.0 mm 0.00 in0.0 mm
01:10 PM 58.8°F14.9°C 24.8°F-4.0°C 27% 6.9 mph WSW11.1 kmh WSW 11.5 mph18.5 kmh 30.14 in1020.7 mb - 0.00 in0.0 mm 0.00 in0.0 mm
01:20 PM 59.8°F15.4°C 23.9°F-4.5°C 25% 3.5 mph WSW5.6 kmh WSW 5.8 mph9.3 kmh 30.14 in1020.7 mb - 0.00 in0.0 mm 0.00 in0.0 mm
01:30 PM 60.6°F15.9°C 24.5°F-4.2°C 25% 1.2 mph WNW1.9 kmh WNW 3.5 mph5.6 kmh 30.14 in1020.7 mb - 0.00 in0.0 mm 0.00 in0.0 mm
01:40 PM 61.2°F16.2°C 24.0°F-4.4°C 24% Calm Calm -- 30.13 in1020.3 mb - 0.00 in0.0 mm 0.00 in0.0 mm
01:50 PM 60.3°F15.7°C 23.3°F-4.8°C 24% Calm Calm -- 30.13 in1020.3 mb - 0.00 in0.0 mm 0.00 in0.0 mm
02:00 PM 61.0°F16.1°C 22.9°F-5.1°C 23% 1.2 mph NW1.9 kmh NW 3.5 mph5.6 kmh 30.13 in1020.3 mb - 0.00 in0.0 mm 0.00 in0.0 mm
02:10 PM 60.7°F15.9°C 22.6°F-5.2°C 23% 3.5 mph NW5.6 kmh NW 9.2 mph14.8 kmh 30.13 in1020.3 mb - 0.00 in0.0 mm 0.00 in0.0 mm
02:20 PM 60.5°F15.8°C 21.4°F-5.9°C 22% 1.2 mph NW1.9 kmh NW 8.1 mph13.0 kmh 30.12 in1020.0 mb - 0.00 in0.0 mm 0.00 in0.0 mm
02:30 PM 61.4°F16.3°C 21.1°F-6.1°C 21% 1.2 mph NNW1.9 kmh NNW 2.3 mph3.7 kmh 30.12 in1020.0 mb - 0.00 in0.0 mm 0.00 in0.0 mm
02:40 PM 61.3°F16.3°C 21.0°F-6.1°C 21% 1.2 mph NNW1.9 kmh NNW 2.3 mph3.7 kmh 30.12 in1020.0 mb - 0.00 in0.0 mm 0.00 in0.0 mm
02:50 PM 63.1°F17.3°C 20.1°F-6.6°C 19% 2.3 mph NW3.7 kmh NW 4.6 mph7.4 kmh 30.11 in1019.6 mb - 0.00 in0.0 mm 0.00 in0.0 mm
03:00 PM 63.0°F17.2°C 17.4°F-8.1°C 17% Calm Calm 3.5 mph5.6 kmh 30.11 in1019.6 mb - 0.00 in0.0 mm 0.00 in0.0 mm
03:10 PM 62.9°F17.2°C 16.0°F-8.9°C 16% 1.2 mph WSW1.9 kmh WSW 3.5 mph5.6 kmh 30.11 in1019.6 mb - 0.00 in0.0 mm 0.00 in0.0 mm
03:20 PM 62.1°F16.7°C 19.3°F-7.1°C 19% 2.3 mph WSW3.7 kmh WSW 5.8 mph9.3 kmh 30.11 in1019.6 mb - 0.00 in0.0 mm 0.00 in0.0 mm
03:30 PM 61.7°F16.5°C 20.2°F-6.6°C 20% Calm Calm 3.5 mph5.6 kmh 30.11 in1019.6 mb - 0.00 in0.0 mm 0.00 in0.0 mm
03:40 PM 62.6°F17.0°C 18.4°F-7.6°C 18% Calm Calm -- 30.11 in1019.6 mb - 0.00 in0.0 mm 0.00 in0.0 mm
03:50 PM 62.7°F17.1°C 19.8°F-6.8°C 19% Calm Calm 2.3 mph3.7 kmh 30.11 in1019.6 mb - 0.00 in0.0 mm 0.00 in0.0 mm
04:00 PM 61.1°F16.2°C 19.7°F-6.8°C 20% Calm Calm 1.2 mph1.9 kmh 30.11 in1019.6 mb - 0.00 in0.0 mm 0.00 in0.0 mm
04:10 PM 62.3°F16.8°C 20.7°F-6.3°C 20% Calm Calm 1.2 mph1.9 kmh 30.11 in1019.6 mb - 0.00 in0.0 mm 0.00 in0.0 mm
04:20 PM 60.9°F16.1°C 19.5°F-6.9°C 20% Calm Calm 1.2 mph1.9 kmh 30.11 in1019.6 mb - 0.00 in0.0 mm 0.00 in0.0 mm
04:30 PM 60.2°F15.7°C 20.1°F-6.6°C 21% Calm Calm -- 30.11 in1019.6 mb - 0.00 in0.0 mm 0.00 in0.0 mm
04:40 PM 59.9°F15.5°C 19.8°F-6.8°C 21% 2.3 mph SW3.7 kmh SW 3.5 mph5.6 kmh 30.11 in1019.6 mb - 0.00 in0.0 mm 0.00 in0.0 mm
04:50 PM 59.2°F15.1°C 21.4°F-5.9°C 23% 2.3 mph SW3.7 kmh SW 4.6 mph7.4 kmh 30.11 in1019.6 mb - 0.00 in0.0 mm 0.00 in0.0 mm
05:00 PM 58.6°F14.8°C 20.9°F-6.2°C 23% Calm Calm 2.3 mph3.7 kmh 30.11 in1019.6 mb - 0.00 in0.0 mm 0.00 in0.0 mm
05:10 PM 58.4°F14.7°C 21.7°F-5.7°C 24% Calm Calm 3.5 mph5.6 kmh 30.11 in1019.6 mb - 0.00 in0.0 mm 0.00 in0.0 mm
05:20 PM 57.6°F14.2°C 23.0°F-5.0°C 26% 2.3 mph S3.7 kmh S 6.9 mph11.1 kmh 30.11 in1019.6 mb - 0.00 in0.0 mm 0.00 in0.0 mm
05:30 PM 56.7°F13.7°C 23.1°F-4.9°C 27% Calm Calm 2.3 mph3.7 kmh 30.11 in1019.6 mb - 0.00 in0.0 mm 0.00 in0.0 mm
05:40 PM 56.1°F13.4°C 23.4°F-4.8°C 28% Calm Calm 2.3 mph3.7 kmh 30.11 in1019.6 mb - 0.00 in0.0 mm 0.00 in0.0 mm
05:50 PM 55.5°F13.1°C 24.5°F-4.2°C 30% Calm Calm 3.5 mph5.6 kmh 30.12 in1020.0 mb - 0.00 in0.0 mm 0.00 in0.0 mm
06:00 PM 54.8°F12.7°C 24.7°F-4.1°C 31% Calm Calm -- 30.12 in1020.0 mb - 0.00 in0.0 mm 0.00 in0.0 mm
06:10 PM 54.3°F12.4°C 25.1°F-3.8°C 32% Calm Calm 2.3 mph3.7 kmh 30.12 in1020.0 mb - 0.00 in0.0 mm 0.00 in0.0 mm
06:20 PM 53.9°F12.2°C 24.7°F-4.1°C 32% 1.2 mph S1.9 kmh S 3.5 mph5.6 kmh 30.12 in1020.0 mb - 0.00 in0.0 mm 0.00 in0.0 mm
06:30 PM 53.5°F11.9°C 25.1°F-3.8°C 33% Calm Calm 2.3 mph3.7 kmh 30.12 in1020.0 mb - 0.00 in0.0 mm 0.00 in0.0 mm
06:40 PM 53.3°F11.8°C 24.9°F-3.9°C 33% 1.2 mph S1.9 kmh S 3.5 mph5.6 kmh 30.12 in1020.0 mb - 0.00 in0.0 mm 0.00 in0.0 mm
06:50 PM 53.2°F11.8°C 25.5°F-3.6°C 34% 1.2 mph S1.9 kmh S 3.5 mph5.6 kmh 30.12 in1020.0 mb - 0.00 in0.0 mm 0.00 in0.0 mm
07:00 PM 52.9°F11.6°C 25.3°F-3.7°C 34% 1.2 mph S1.9 kmh S 2.3 mph3.7 kmh 30.12 in1020.0 mb - 0.00 in0.0 mm 0.00 in0.0 mm
07:10 PM 52.6°F11.4°C 25.0°F-3.9°C 34% Calm Calm 3.5 mph5.6 kmh 30.12 in1020.0 mb - 0.00 in0.0 mm 0.00 in0.0 mm
07:20 PM 51.9°F11.1°C 25.8°F-3.4°C 36% 1.2 mph S1.9 kmh S 3.5 mph5.6 kmh 30.12 in1020.0 mb - 0.00 in0.0 mm 0.00 in0.0 mm
07:30 PM 50.8°F10.4°C 26.1°F-3.3°C 38% Calm Calm -- 30.12 in1020.0 mb - 0.00 in0.0 mm 0.00 in0.0 mm
07:40 PM 50.1°F10.1°C 26.1°F-3.3°C 39% 1.2 mph S1.9 kmh S 2.3 mph3.7 kmh 30.12 in1020.0 mb - 0.00 in0.0 mm 0.00 in0.0 mm
07:50 PM 49.5°F9.7°C 26.8°F-2.9°C 41% Calm Calm -- 30.12 in1020.0 mb - 0.00 in0.0 mm 0.00 in0.0 mm
08:00 PM 48.7°F9.3°C 26.6°F-3.0°C 42% Calm Calm -- 30.12 in1020.0 mb - 0.00 in0.0 mm 0.00 in0.0 mm
08:10 PM 47.9°F8.8°C 27.0°F-2.8°C 44% Calm Calm -- 30.12 in1020.0 mb - 0.00 in0.0 mm 0.00 in0.0 mm
08:20 PM 47.4°F8.6°C 26.6°F-3.0°C 44% Calm Calm -- 30.12 in1020.0 mb - 0.00 in0.0 mm 0.00 in0.0 mm
08:30 PM 47.1°F8.4°C 26.8°F-2.9°C 45% Calm Calm -- 30.12 in1020.0 mb - 0.00 in0.0 mm 0.00 in0.0 mm
08:40 PM 46.8°F8.2°C 26.6°F-3.0°C 45% Calm Calm -- 30.11 in1019.6 mb - 0.00 in0.0 mm 0.00 in0.0 mm
08:50 PM 46.4°F8.0°C 26.7°F-2.9°C 46% Calm Calm -- 30.11 in1019.6 mb - 0.00 in0.0 mm 0.00 in0.0 mm
09:00 PM 46.0°F7.8°C 26.9°F-2.8°C 47% Calm Calm -- 30.11 in1019.6 mb - 0.00 in0.0 mm 0.00 in0.0 mm
09:10 PM 45.6°F7.6°C 27.0°F-2.8°C 48% Calm Calm -- 30.11 in1019.6 mb - 0.00 in0.0 mm 0.00 in0.0 mm
09:20 PM 45.4°F7.4°C 27.3°F-2.6°C 49% Calm Calm -- 30.11 in1019.6 mb - 0.00 in0.0 mm 0.00 in0.0 mm
09:30 PM 45.1°F7.3°C 27.1°F-2.7°C 49% Calm Calm -- 30.11 in1019.6 mb - 0.00 in0.0 mm 0.00 in0.0 mm
09:40 PM 44.7°F7.1°C 27.2°F-2.7°C 50% Calm Calm 1.2 mph1.9 kmh 30.11 in1019.6 mb - 0.00 in0.0 mm 0.00 in0.0 mm
09:50 PM 44.5°F6.9°C 27.0°F-2.8°C 50% Calm Calm -- 30.11 in1019.6 mb - 0.00 in0.0 mm 0.00 in0.0 mm
10:00 PM 44.3°F6.8°C 27.3°F-2.6°C 51% Calm Calm -- 30.11 in1019.6 mb - 0.00 in0.0 mm 0.00 in0.0 mm
10:10 PM 43.8°F6.6°C 27.3°F-2.6°C 52% Calm Calm -- 30.11 in1019.6 mb - 0.00 in0.0 mm 0.00 in0.0 mm
10:20 PM 43.4°F6.3°C 26.9°F-2.8°C 52% Calm Calm -- 30.10 in1019.3 mb - 0.00 in0.0 mm 0.00 in0.0 mm
10:30 PM 43.1°F6.2°C 27.1°F-2.7°C 53% Calm Calm 1.2 mph1.9 kmh 30.10 in1019.3 mb - 0.00 in0.0 mm 0.00 in0.0 mm
10:40 PM 42.8°F6.0°C 27.3°F-2.6°C 54% Calm Calm -- 30.10 in1019.3 mb - 0.00 in0.0 mm 0.00 in0.0 mm
10:50 PM 42.4°F5.8°C 26.9°F-2.8°C 54% Calm Calm -- 30.10 in1019.3 mb - 0.00 in0.0 mm 0.00 in0.0 mm
11:00 PM 41.8°F5.4°C 27.3°F-2.6°C 56% Calm Calm -- 30.09 in1019.0 mb - 0.00 in0.0 mm 0.00 in0.0 mm
11:10 PM 41.3°F5.2°C 27.2°F-2.7°C 57% Calm Calm -- 30.09 in1019.0 mb - 0.00 in0.0 mm 0.00 in0.0 mm
11:20 PM 40.8°F4.9°C 27.5°F-2.5°C 59% Calm Calm -- 30.09 in1019.0 mb - 0.00 in0.0 mm 0.00 in0.0 mm
11:30 PM 40.2°F4.6°C 27.8°F-2.3°C 61% Calm Calm -- 30.08 in1018.6 mb - 0.00 in0.0 mm 0.00 in0.0 mm
11:40 PM 39.8°F4.3°C 28.2°F-2.1°C 63% Calm Calm -- 30.08 in1018.6 mb - 0.00 in0.0 mm 0.00 in0.0 mm
11:50 PM 39.3°F4.1°C 28.9°F-1.7°C 66% Calm Calm -- 30.08 in1018.6 mb - 0.00 in0.0 mm 0.00 in0.0 mm